createdAt,value
2018-11-02T00:01:14.544Z,10.90
2018-11-02T00:03:42.913Z,10.80
2018-11-02T00:06:11.367Z,10.90
2018-11-02T00:08:39.746Z,10.80
2018-11-02T00:11:08.171Z,10.80
2018-11-02T00:13:36.538Z,10.80
2018-11-02T00:16:05.144Z,10.70
2018-11-02T00:18:33.570Z,10.60
2018-11-02T00:21:02.306Z,10.50
2018-11-02T00:23:30.747Z,10.50
2018-11-02T00:25:59.138Z,10.40
2018-11-02T00:28:27.557Z,10.40
2018-11-02T00:30:56.165Z,10.40
2018-11-02T00:33:24.555Z,10.30
2018-11-02T00:35:52.945Z,10.40
2018-11-02T00:38:21.346Z,10.40
2018-11-02T00:40:49.729Z,10.40
2018-11-02T00:43:18.129Z,10.40
2018-11-02T00:45:46.528Z,10.30
2018-11-02T00:48:15.133Z,10.30
2018-11-02T00:50:43.531Z,10.40
2018-11-02T00:53:11.925Z,10.40
2018-11-02T00:55:40.307Z,10.40
2018-11-02T00:58:08.700Z,10.50
2018-11-02T01:00:37.108Z,10.50
2018-11-02T01:03:06.039Z,10.40
2018-11-02T01:05:34.463Z,10.40
2018-11-02T01:08:02.869Z,10.30
2018-11-02T01:10:31.239Z,10.30
2018-11-02T01:12:59.617Z,10.20
2018-11-02T01:15:28.000Z,10.20
2018-11-02T01:17:56.404Z,10.20
2018-11-02T01:20:24.798Z,10.20
2018-11-02T01:22:53.661Z,10.20
2018-11-02T01:25:22.065Z,10.20
2018-11-02T01:27:50.454Z,10.20
2018-11-02T01:30:18.913Z,10.20
2018-11-02T01:32:47.270Z,10.20
2018-11-02T01:35:15.652Z,10.10
2018-11-02T01:37:44.076Z,10.20
2018-11-02T01:40:12.481Z,10.20
2018-11-02T01:42:40.880Z,10.20
2018-11-02T01:45:09.293Z,10.10
2018-11-02T01:47:37.681Z,10.20
2018-11-02T01:50:06.786Z,10.20
2018-11-02T01:52:35.201Z,10.20
2018-11-02T01:55:03.633Z,10.20
2018-11-02T01:57:32.010Z,10.20
2018-11-02T02:00:00.641Z,10.20
2018-11-02T02:02:29.031Z,10.20
2018-11-02T02:04:57.432Z,10.20
2018-11-02T02:07:25.832Z,10.20
2018-11-02T02:09:54.224Z,10.20
2018-11-02T02:12:22.603Z,10.10
2018-11-02T02:14:50.998Z,10.10
2018-11-02T02:17:19.425Z,10.10
2018-11-02T02:19:47.831Z,10.10
2018-11-02T02:22:16.225Z,10.10
2018-11-02T02:24:44.631Z,10.00
2018-11-02T02:27:13.059Z,10.00
2018-11-02T02:29:41.456Z,9.90
2018-11-02T02:32:09.799Z,9.90
2018-11-02T02:34:38.164Z,9.90
2018-11-02T02:37:06.575Z,9.80
2018-11-02T02:39:34.946Z,9.70
2018-11-02T02:42:03.353Z,9.70
2018-11-02T02:44:31.759Z,9.70
2018-11-02T02:47:00.421Z,9.70
2018-11-02T02:49:28.807Z,9.70
2018-11-02T02:51:57.265Z,9.70
2018-11-02T02:54:25.646Z,9.80
2018-11-02T02:56:54.004Z,9.80
2018-11-02T02:59:22.411Z,9.80
2018-11-02T03:01:50.781Z,9.80
2018-11-02T03:04:19.155Z,9.80
2018-11-02T03:06:47.546Z,9.80
2018-11-02T03:09:15.990Z,9.80
2018-11-02T03:11:44.336Z,9.80
2018-11-02T03:14:12.731Z,9.90
2018-11-02T03:16:41.573Z,9.90
2018-11-02T03:19:09.944Z,9.80
2018-11-02T03:21:38.378Z,9.90
2018-11-02T03:24:06.803Z,9.80
2018-11-02T03:26:35.135Z,9.80
2018-11-02T03:29:03.531Z,9.90
2018-11-02T03:31:32.189Z,9.80
2018-11-02T03:34:00.579Z,9.90
2018-11-02T03:36:28.970Z,9.90
2018-11-02T03:38:57.643Z,9.90
2018-11-02T03:41:26.035Z,9.90
2018-11-02T03:43:54.718Z,9.90
2018-11-02T03:46:23.435Z,9.90
2018-11-02T03:48:51.771Z,9.90
2018-11-02T03:51:20.185Z,9.80
2018-11-02T03:53:48.785Z,9.80
2018-11-02T03:56:17.161Z,9.70
2018-11-02T03:58:45.539Z,9.70
2018-11-02T04:01:14.285Z,9.60
2018-11-02T04:03:42.955Z,9.60
2018-11-02T04:06:11.357Z,9.60
2018-11-02T04:08:39.758Z,9.50
2018-11-02T04:11:08.714Z,9.40
2018-11-02T04:13:37.096Z,9.40
2018-11-02T04:16:05.540Z,9.30
2018-11-02T04:18:33.921Z,9.30
2018-11-02T04:21:02.622Z,9.20
2018-11-02T04:23:30.996Z,9.10
2018-11-02T04:25:59.344Z,9.00
2018-11-02T04:28:28.055Z,9.00
2018-11-02T04:30:56.448Z,8.90
2018-11-02T04:33:24.785Z,8.90
2018-11-02T04:35:53.157Z,8.90
2018-11-02T04:38:21.506Z,8.90
2018-11-02T04:40:49.871Z,8.80
2018-11-02T04:43:18.352Z,8.80
2018-11-02T04:45:46.726Z,8.80
2018-11-02T04:48:15.116Z,8.70
2018-11-02T04:50:43.550Z,8.70
2018-11-02T04:53:11.981Z,8.70
2018-11-02T04:55:40.354Z,8.70
2018-11-02T04:58:08.753Z,8.70
2018-11-02T05:00:37.250Z,8.60
2018-11-02T05:03:05.689Z,8.70
2018-11-02T05:05:34.080Z,8.70
2018-11-02T05:08:02.472Z,8.70
2018-11-02T05:10:30.843Z,8.70
2018-11-02T05:12:59.220Z,8.60
2018-11-02T05:15:27.599Z,8.60
2018-11-02T05:17:55.960Z,8.50
2018-11-02T05:20:24.402Z,8.50
2018-11-02T05:22:52.771Z,8.50
2018-11-02T05:25:21.151Z,8.50
2018-11-02T05:27:49.555Z,8.40
2018-11-02T05:30:18.116Z,8.40
2018-11-02T05:32:46.792Z,8.30
2018-11-02T05:35:15.194Z,8.30
2018-11-02T05:37:43.553Z,8.30
2018-11-02T05:40:11.921Z,8.30
2018-11-02T05:42:40.300Z,8.20
2018-11-02T05:45:08.697Z,8.10
2018-11-02T05:47:37.111Z,8.20
2018-11-02T05:50:05.800Z,8.10
2018-11-02T05:52:34.175Z,8.10
2018-11-02T05:55:02.668Z,8.10
2018-11-02T05:57:31.522Z,8.10
2018-11-02T05:59:59.883Z,8.10
2018-11-02T06:02:28.264Z,8.10
2018-11-02T06:04:57.611Z,8.10
2018-11-02T06:07:25.989Z,8.00
2018-11-02T06:09:54.352Z,8.00
2018-11-02T06:12:22.737Z,8.00
2018-11-02T06:14:51.121Z,8.00
2018-11-02T06:17:19.492Z,8.00
2018-11-02T06:19:48.197Z,8.10
2018-11-02T06:22:16.564Z,8.10
2018-11-02T06:24:44.962Z,8.00
2018-11-02T06:27:13.359Z,8.10
2018-11-02T06:29:41.728Z,8.00
2018-11-02T06:32:10.364Z,7.90
2018-11-02T06:34:38.892Z,7.90
2018-11-02T06:37:07.281Z,7.90
2018-11-02T06:39:35.652Z,7.90
2018-11-02T06:42:04.244Z,7.90
2018-11-02T06:44:32.836Z,8.00
2018-11-02T06:47:01.227Z,8.00
2018-11-02T06:49:29.660Z,8.00
2018-11-02T06:51:58.033Z,8.00
2018-11-02T06:54:26.652Z,8.00
2018-11-02T06:56:55.097Z,8.00
2018-11-02T06:59:23.869Z,8.00
2018-11-02T07:01:52.140Z,8.00
2018-11-02T07:04:20.560Z,8.00
2018-11-02T07:06:50.946Z,8.00
2018-11-02T07:09:19.458Z,8.00
2018-11-02T07:11:48.468Z,8.00
2018-11-02T07:14:17.492Z,8.00
2018-11-02T07:16:46.035Z,8.00
2018-11-02T07:19:15.158Z,8.00
2018-11-02T07:21:44.133Z,7.90
2018-11-02T07:24:12.882Z,7.90
2018-11-02T07:26:45.410Z,7.90
2018-11-02T07:29:18.839Z,7.90
2018-11-02T07:31:47.858Z,7.90
2018-11-02T07:34:16.871Z,7.90
2018-11-02T07:36:45.776Z,7.90
2018-11-02T07:39:27.392Z,8.00
2018-11-02T07:41:56.213Z,8.00
2018-11-02T07:44:24.732Z,8.00
2018-11-02T07:46:55.603Z,8.10
2018-11-02T07:49:24.928Z,8.10
2018-11-02T07:51:53.880Z,8.10
2018-11-02T07:54:22.962Z,8.10
2018-11-02T07:56:51.886Z,8.20
2018-11-02T07:59:21.053Z,8.20
2018-11-02T08:01:50.154Z,8.20
2018-11-02T08:04:19.689Z,8.30
2018-11-02T08:06:48.779Z,8.30
2018-11-02T08:09:17.838Z,8.30
2018-11-02T08:11:46.812Z,8.30
2018-11-02T08:14:15.767Z,8.30
2018-11-02T08:16:44.818Z,8.40
2018-11-02T08:19:13.727Z,8.40
2018-11-02T08:21:42.723Z,8.50
2018-11-02T08:24:11.624Z,8.50
2018-11-02T08:26:40.729Z,8.50
2018-11-02T08:29:09.589Z,8.60
2018-11-02T08:31:38.726Z,8.60
2018-11-02T08:34:07.683Z,8.70
2018-11-02T08:36:36.680Z,8.70
2018-11-02T08:39:07.898Z,8.70
2018-11-02T08:41:36.830Z,8.80
2018-11-02T08:44:05.972Z,8.90
2018-11-02T08:46:34.874Z,8.90
2018-11-02T08:49:03.758Z,8.90
2018-11-02T08:51:33.168Z,8.90
2018-11-02T08:54:02.014Z,9.00
2018-11-02T08:56:31.095Z,9.10
2018-11-02T08:59:00.148Z,9.00
2018-11-02T09:01:29.109Z,9.10
2018-11-02T09:03:58.099Z,9.10
2018-11-02T09:06:27.070Z,9.10
2018-11-02T09:08:55.560Z,9.20
2018-11-02T09:11:23.931Z,9.20
2018-11-02T09:13:52.516Z,9.30
2018-11-02T09:16:20.914Z,9.30
2018-11-02T09:18:49.611Z,9.30
2018-11-02T09:21:18.009Z,9.40
2018-11-02T09:23:46.665Z,9.40
2018-11-02T09:26:15.044Z,9.50
2018-11-02T09:28:43.407Z,9.60
2018-11-02T09:31:11.832Z,9.50
2018-11-02T09:33:40.206Z,9.70
2018-11-02T09:36:08.554Z,9.70
2018-11-02T09:38:37.238Z,9.80
2018-11-02T09:41:06.054Z,9.90
2018-11-02T09:43:34.591Z,9.90
2018-11-02T09:46:03.024Z,9.90
2018-11-02T09:48:31.399Z,9.90
2018-11-02T09:50:59.795Z,10.00
2018-11-02T09:53:28.479Z,10.10
2018-11-02T09:55:56.880Z,10.10
2018-11-02T09:58:25.825Z,10.10
2018-11-02T10:00:54.472Z,10.20
2018-11-02T10:03:22.850Z,10.20
2018-11-02T10:05:51.541Z,10.30
2018-11-02T10:08:20.291Z,10.30
2018-11-02T10:10:48.929Z,10.30
2018-11-02T10:13:17.332Z,10.40
2018-11-02T10:15:45.741Z,10.40
2018-11-02T10:18:14.138Z,10.40
2018-11-02T10:20:42.829Z,10.40
2018-11-02T10:23:11.293Z,10.40
2018-11-02T10:25:39.710Z,10.50
2018-11-02T10:28:08.203Z,10.50
2018-11-02T10:30:36.657Z,10.60
2018-11-02T10:33:05.268Z,10.60
2018-11-02T10:35:34.168Z,10.70
2018-11-02T10:38:02.973Z,10.70
2018-11-02T10:40:33.167Z,10.80
2018-11-02T10:43:10.047Z,10.90
2018-11-02T10:45:42.871Z,11.00
2018-11-02T10:48:11.616Z,11.00
2018-11-02T10:50:40.049Z,11.10
2018-11-02T10:53:08.522Z,11.10
2018-11-02T10:55:36.947Z,11.20
2018-11-02T10:58:05.682Z,11.00
2018-11-02T11:00:39.413Z,11.10
2018-11-02T11:03:07.863Z,11.20
2018-11-02T11:05:36.315Z,11.30
2018-11-02T11:08:05.056Z,11.40
2018-11-02T11:10:33.458Z,11.40
2018-11-02T11:13:02.258Z,11.50
2018-11-02T11:15:30.521Z,11.60
2018-11-02T11:17:58.945Z,11.70
2018-11-02T11:20:27.319Z,11.90
2018-11-02T11:22:55.814Z,11.90
2018-11-02T11:25:24.266Z,12.10
2018-11-02T11:27:52.719Z,12.20
2018-11-02T11:30:21.397Z,12.40
2018-11-02T11:32:50.962Z,12.40
2018-11-02T11:35:20.479Z,12.50
2018-11-02T11:37:49.020Z,12.60
2018-11-02T11:40:19.501Z,12.60
2018-11-02T11:42:48.206Z,12.60
2018-11-02T11:45:18.090Z,12.60
2018-11-02T11:47:46.760Z,12.70
2018-11-02T11:50:18.269Z,12.70
2018-11-02T11:52:48.082Z,12.50
2018-11-02T11:55:16.950Z,12.20
2018-11-02T11:57:45.654Z,12.20
2018-11-02T12:00:16.059Z,12.20
2018-11-02T12:02:45.786Z,12.10
2018-11-02T12:05:15.944Z,12.10
2018-11-02T12:07:44.723Z,12.10
2018-11-02T12:10:16.266Z,11.80
2018-11-02T12:12:44.648Z,11.50
2018-11-02T12:15:15.079Z,11.30
2018-11-02T12:17:44.166Z,11.10
2018-11-02T12:20:15.423Z,10.80
2018-11-02T12:22:44.870Z,10.80
2018-11-02T12:25:14.118Z,10.60
2018-11-02T12:27:42.866Z,10.60
2018-11-02T12:30:14.444Z,10.70
2018-11-02T12:32:42.864Z,10.80
2018-11-02T12:35:12.436Z,11.00
2018-11-02T12:37:40.854Z,11.20
2018-11-02T12:40:13.309Z,11.40
2018-11-02T12:42:42.106Z,11.60
2018-11-02T12:45:12.405Z,11.80
2018-11-02T12:47:41.421Z,11.90
2018-11-02T12:50:12.560Z,12.00
2018-11-02T12:52:40.910Z,12.10
2018-11-02T12:55:09.954Z,12.20
2018-11-02T12:57:38.649Z,12.20
2018-11-02T13:00:10.246Z,12.20
2018-11-02T13:02:38.662Z,12.20
2018-11-02T13:05:07.824Z,12.20
2018-11-02T13:07:36.646Z,12.20
2018-11-02T13:10:05.996Z,12.10
2018-11-02T13:12:34.400Z,12.00
2018-11-02T13:15:03.133Z,12.00
2018-11-02T13:17:31.661Z,11.90
2018-11-02T13:20:00.540Z,11.80
2018-11-02T13:22:28.924Z,11.80
2018-11-02T13:24:57.335Z,12.00
2018-11-02T13:27:26.072Z,12.10
2018-11-02T13:29:54.962Z,12.10
2018-11-02T13:32:23.769Z,12.10
2018-11-02T13:34:52.338Z,12.10
2018-11-02T13:37:21.420Z,12.10
2018-11-02T13:39:49.797Z,12.20
2018-11-02T13:42:18.194Z,12.20
2018-11-02T13:44:46.629Z,12.30
2018-11-02T13:47:15.389Z,12.30
2018-11-02T13:49:43.763Z,12.40
2018-11-02T13:52:12.206Z,12.40
2018-11-02T13:54:40.626Z,12.50
2018-11-02T13:57:09.050Z,12.50
2018-11-02T13:59:37.936Z,12.60
2018-11-02T14:02:07.232Z,12.70
2018-11-02T14:04:35.611Z,12.70
2018-11-02T14:07:05.111Z,12.60
2018-11-02T14:09:33.564Z,12.50
2018-11-02T14:12:01.944Z,12.30
2018-11-02T14:14:30.960Z,12.00
2018-11-02T14:16:59.359Z,11.90
2018-11-02T14:19:27.761Z,11.80
2018-11-02T14:21:56.388Z,11.80
2018-11-02T14:24:25.130Z,11.90
2018-11-02T14:26:53.510Z,12.10
2018-11-02T14:29:22.219Z,12.20
2018-11-02T14:31:50.619Z,12.30
2018-11-02T14:34:18.999Z,12.10
2018-11-02T14:36:47.400Z,12.30
2018-11-02T14:39:15.965Z,12.10
2018-11-02T14:41:44.986Z,11.80
2018-11-02T14:44:13.401Z,11.50
2018-11-02T14:46:41.910Z,11.90
2018-11-02T14:49:10.227Z,12.80
2018-11-02T14:51:38.830Z,13.70
2018-11-02T14:54:07.372Z,14.70
2018-11-02T14:56:35.911Z,14.70
2018-11-02T14:59:04.609Z,14.90
2018-11-02T15:01:33.571Z,15.00
2018-11-02T15:04:01.952Z,15.40
2018-11-02T15:06:30.934Z,15.50
2018-11-02T15:08:59.495Z,15.40
2018-11-02T15:11:28.073Z,15.50
2018-11-02T15:13:56.291Z,15.80
2018-11-02T15:16:24.705Z,15.80
2018-11-02T15:18:53.088Z,15.80
2018-11-02T15:21:21.557Z,15.80
2018-11-02T15:23:50.530Z,15.70
2018-11-02T15:26:18.978Z,15.50
2018-11-02T15:28:47.369Z,15.20
2018-11-02T15:31:15.761Z,14.90
2018-11-02T15:33:44.368Z,14.50
2018-11-02T15:36:13.021Z,14.40
2018-11-02T15:38:41.437Z,14.00
2018-11-02T15:41:09.819Z,13.80
2018-11-02T15:43:38.262Z,13.50
2018-11-02T15:46:06.742Z,13.20
2018-11-02T15:48:35.202Z,12.50
2018-11-02T15:51:03.925Z,11.90
2018-11-02T15:53:32.610Z,11.40
2018-11-02T15:56:01.000Z,11.00
2018-11-02T15:58:29.683Z,10.80
2018-11-02T16:00:58.058Z,10.60
2018-11-02T16:03:26.638Z,10.40
2018-11-02T16:05:55.043Z,10.30
2018-11-02T16:08:23.444Z,10.20
2018-11-02T16:10:51.908Z,10.10
2018-11-02T16:13:20.343Z,10.10
2018-11-02T16:15:48.739Z,10.00
2018-11-02T16:18:17.129Z,9.90
2018-11-02T16:20:45.553Z,9.80
2018-11-02T16:23:13.972Z,9.70
2018-11-02T16:25:42.777Z,9.60
2018-11-02T16:28:11.167Z,9.40
2018-11-02T16:30:39.556Z,9.20
2018-11-02T16:33:07.939Z,9.10
2018-11-02T16:35:36.658Z,9.00
2018-11-02T16:38:05.033Z,8.90
2018-11-02T16:40:33.445Z,8.90
2018-11-02T16:43:01.943Z,8.80
2018-11-02T16:45:30.343Z,8.70
2018-11-02T16:47:58.766Z,8.40
2018-11-02T16:50:27.230Z,8.30
2018-11-02T16:52:55.853Z,8.20
2018-11-02T16:55:24.285Z,8.10
2018-11-02T16:57:52.797Z,8.10
2018-11-02T17:00:21.303Z,8.00
2018-11-02T17:02:50.029Z,7.90
2018-11-02T17:05:19.045Z,7.80
2018-11-02T17:07:47.430Z,7.70
2018-11-02T17:10:16.397Z,7.60
2018-11-02T17:12:45.703Z,7.50
2018-11-02T17:15:14.488Z,7.50
2018-11-02T17:17:42.893Z,7.40
2018-11-02T17:20:13.623Z,7.30
2018-11-02T17:22:42.125Z,7.30
2018-11-02T17:25:11.592Z,7.20
2018-11-02T17:27:40.316Z,7.10
2018-11-02T17:30:12.852Z,7.00
2018-11-02T17:32:41.773Z,6.90
2018-11-02T17:35:10.782Z,6.80
2018-11-02T17:37:39.299Z,6.80
2018-11-02T17:40:09.681Z,6.80
2018-11-02T17:42:38.076Z,6.70
2018-11-02T17:45:07.705Z,6.60
2018-11-02T17:47:37.332Z,6.60
2018-11-02T17:50:06.148Z,6.60
2018-11-02T17:52:34.569Z,6.60
2018-11-02T17:55:03.142Z,6.60
2018-11-02T17:57:31.585Z,6.50
2018-11-02T17:59:59.987Z,6.40
2018-11-02T18:02:28.427Z,6.40
2018-11-02T18:04:56.813Z,6.20
2018-11-02T18:07:25.416Z,6.20
2018-11-02T18:09:53.889Z,6.10
2018-11-02T18:12:22.356Z,6.10
2018-11-02T18:14:51.133Z,6.00
2018-11-02T18:17:19.787Z,6.00
2018-11-02T18:19:48.170Z,5.90
2018-11-02T18:22:16.593Z,5.90
2018-11-02T18:24:44.967Z,5.80
2018-11-02T18:27:13.983Z,5.80
2018-11-02T18:29:42.377Z,5.70
2018-11-02T18:32:10.787Z,5.70
2018-11-02T18:34:39.205Z,5.80
2018-11-02T18:37:08.065Z,5.70
2018-11-02T18:39:36.467Z,5.70
2018-11-02T18:42:05.368Z,5.60
2018-11-02T18:44:33.718Z,5.50
2018-11-02T18:47:02.148Z,5.50
2018-11-02T18:49:30.556Z,5.40
2018-11-02T18:51:58.963Z,5.40
2018-11-02T18:54:27.381Z,5.30
2018-11-02T18:56:55.794Z,5.30
2018-11-02T18:59:24.161Z,5.40
2018-11-02T19:01:52.541Z,5.30
2018-11-02T19:04:20.919Z,5.30
2018-11-02T19:06:49.565Z,5.20
2018-11-02T19:09:18.000Z,5.20
2018-11-02T19:11:46.408Z,5.20
2018-11-02T19:14:14.782Z,5.20
2018-11-02T19:16:43.212Z,5.10
2018-11-02T19:19:11.631Z,5.10
2018-11-02T19:21:40.157Z,5.00
2018-11-02T19:24:08.434Z,5.00
2018-11-02T19:26:36.985Z,4.90
2018-11-02T19:29:05.973Z,4.90
2018-11-02T19:31:34.411Z,4.80
2018-11-02T19:34:02.878Z,4.80
2018-11-02T19:36:31.199Z,4.80
2018-11-02T19:38:59.617Z,4.70
2018-11-02T19:41:28.000Z,4.70
2018-11-02T19:43:56.770Z,4.60
2018-11-02T19:46:25.176Z,4.60
2018-11-02T19:48:53.878Z,4.60
2018-11-02T19:51:22.260Z,4.60
2018-11-02T19:53:50.692Z,4.60
2018-11-02T19:56:19.321Z,4.60
2018-11-02T19:58:47.693Z,4.50
2018-11-02T20:01:16.117Z,4.50
2018-11-02T20:03:44.513Z,4.50
2018-11-02T20:06:13.199Z,4.50
2018-11-02T20:08:41.617Z,4.50
2018-11-02T20:11:10.026Z,4.40
2018-11-02T20:13:38.630Z,4.40
2018-11-02T20:16:07.346Z,4.40
2018-11-02T20:18:35.721Z,4.30
2018-11-02T20:21:04.116Z,4.30
2018-11-02T20:23:32.530Z,4.20
2018-11-02T20:26:01.528Z,4.20
2018-11-02T20:28:29.835Z,4.20
2018-11-02T20:30:58.509Z,4.20
2018-11-02T20:33:27.466Z,4.20
2018-11-02T20:35:55.870Z,4.20
2018-11-02T20:38:24.308Z,4.20
2018-11-02T20:40:52.704Z,4.10
2018-11-02T20:43:21.124Z,4.10
2018-11-02T20:45:49.981Z,4.10
2018-11-02T20:48:18.388Z,4.10
2018-11-02T20:50:47.350Z,4.10
2018-11-02T20:53:15.759Z,4.10
2018-11-02T20:55:44.149Z,4.10
2018-11-02T20:58:12.515Z,4.10
2018-11-02T21:00:40.931Z,4.10
2018-11-02T21:03:09.316Z,4.00
2018-11-02T21:05:37.715Z,4.00
2018-11-02T21:08:06.794Z,3.90
2018-11-02T21:10:35.055Z,3.90
2018-11-02T21:13:03.465Z,3.90
2018-11-02T21:15:32.140Z,3.90
2018-11-02T21:18:00.777Z,3.90
2018-11-02T21:20:29.163Z,3.80
2018-11-02T21:22:57.596Z,3.80
2018-11-02T21:25:25.966Z,3.80
2018-11-02T21:27:54.347Z,3.80
2018-11-02T21:30:24.040Z,3.80
2018-11-02T21:32:53.230Z,3.80
2018-11-02T21:35:22.535Z,3.70
2018-11-02T21:37:51.136Z,3.70
2018-11-02T21:40:21.861Z,3.60
2018-11-02T21:42:50.244Z,3.50
2018-11-02T21:45:20.061Z,3.50
2018-11-02T21:47:48.690Z,3.50
2018-11-02T21:50:17.716Z,3.50
2018-11-02T21:52:46.423Z,3.50
2018-11-02T21:55:15.121Z,3.40
2018-11-02T21:57:43.773Z,3.40
2018-11-02T22:00:16.974Z,3.40
2018-11-02T22:02:45.768Z,3.40
2018-11-02T22:05:14.567Z,3.40
2018-11-02T22:07:44.701Z,3.30
2018-11-02T22:10:13.672Z,3.20
2018-11-02T22:12:42.057Z,3.30
2018-11-02T22:15:10.789Z,3.20
2018-11-02T22:17:40.299Z,3.20
2018-11-02T22:20:10.286Z,3.20
2018-11-02T22:22:38.928Z,3.10
2018-11-02T22:25:08.593Z,3.10
2018-11-02T22:27:37.347Z,3.10
2018-11-02T22:30:07.543Z,3.10
2018-11-02T22:32:35.924Z,3.10
2018-11-02T22:35:04.634Z,3.10
2018-11-02T22:37:33.053Z,3.00
2018-11-02T22:40:01.450Z,2.90
2018-11-02T22:42:29.961Z,2.90
2018-11-02T22:44:58.580Z,2.90
2018-11-02T22:47:27.031Z,2.80
2018-11-02T22:49:55.471Z,2.80
2018-11-02T22:52:24.133Z,2.80
2018-11-02T22:54:52.547Z,2.80
2018-11-02T22:57:20.929Z,2.80
2018-11-02T22:59:49.336Z,2.80
2018-11-02T23:02:17.706Z,2.80
2018-11-02T23:04:46.088Z,2.70
2018-11-02T23:07:14.750Z,2.70
2018-11-02T23:09:43.676Z,2.70
2018-11-02T23:12:12.077Z,2.70
2018-11-02T23:14:40.477Z,2.70
2018-11-02T23:17:08.888Z,2.70
2018-11-02T23:19:37.318Z,2.70
2018-11-02T23:22:06.883Z,2.60
2018-11-02T23:24:35.243Z,2.60
2018-11-02T23:27:04.002Z,2.40
2018-11-02T23:29:32.446Z,2.50
2018-11-02T23:32:00.785Z,2.50
2018-11-02T23:34:29.188Z,2.50
2018-11-02T23:36:57.615Z,2.50
2018-11-02T23:39:25.992Z,2.50
2018-11-02T23:41:54.337Z,2.40
2018-11-02T23:44:22.763Z,2.40
2018-11-02T23:46:51.201Z,2.40
2018-11-02T23:49:19.615Z,2.30
2018-11-02T23:51:48.052Z,2.30
2018-11-02T23:54:16.449Z,2.20
2018-11-02T23:56:45.042Z,2.20
2018-11-02T23:59:13.757Z,2.20
